Time;durP1;ratioP1;P1;durP2;ratioP2;P2;SDS_P1;SDS_P2;PMS_P1;PMS_P2;Temp;Humidity;BMP_temperature;BMP_pressure;BME280_temperature;BME280_humidity;BME280_pressure;Samples;Min_cycle;Max_cycle;Signal;HPM_P1;HPM_P2
2021/05/25 00:04:45;;;;;;;5.93;2.00;;;;;;;;;;10357185;28;20048;-65
2021/05/25 00:09:42;;;;;;;1.70;1.40;;;;;;;;;;10357323;28;20420;-65
2021/05/25 00:14:41;;;;;;;3.75;1.67;;;;;;;;;;10362077;28;20504;-65
2021/05/25 00:19:39;;;;;;;2.90;1.73;;;;;;;;;;10364989;28;20036;-65
2021/05/25 00:24:37;;;;;;;3.60;1.42;;;;;;;;;;10364324;28;20056;-65
2021/05/25 00:29:35;;;;;;;2.40;1.63;;;;;;;;;;10364472;28;20080;-65
2021/05/25 00:34:34;;;;;;;3.50;2.85;;;;;;;;;;10364446;28;20063;-65
2021/05/25 00:39:31;;;;;;;3.63;1.90;;;;;;;;;;10364130;28;20080;-65
2021/05/25 00:44:29;;;;;;;2.45;1.55;;;;;;;;;;10363769;28;20052;-66
2021/05/25 00:49:27;;;;;;;2.55;1.67;;;;;;;;;;10363498;28;20044;-64
2021/05/25 00:54:26;;;;;;;3.17;1.35;;;;;;;;;;10363331;28;20044;-66
2021/05/25 00:59:25;;;;;;;2.30;1.50;;;;;;;;;;10363502;28;20048;-65
2021/05/25 01:04:22;;;;;;;2.00;1.48;;;;;;;;;;10362851;28;20445;-65
2021/05/25 01:09:20;;;;;;;2.83;1.45;;;;;;;;;;10362932;28;20048;-65
2021/05/25 01:14:19;;;;;;;2.20;1.50;;;;;;;;;;10362851;28;20072;-64
2021/05/25 01:19:17;;;;;;;2.15;1.60;;;;;;;;;;10361904;28;20052;-64
2021/05/25 01:24:16;;;;;;;6.18;2.40;;;;;;;;;;10360862;28;20071;-64
2021/05/25 01:29:14;;;;;;;1.92;1.63;;;;;;;;;;10361246;28;20036;-65
2021/05/25 01:34:12;;;;;;;2.35;2.10;;;;;;;;;;10361072;28;20079;-65
2021/05/25 01:39:10;;;;;;;4.45;1.70;;;;;;;;;;10361592;28;20044;-65
2021/05/25 01:44:09;;;;;;;5.88;1.90;;;;;;;;;;10359884;28;20064;-65
2021/05/25 01:49:07;;;;;;;4.22;1.90;;;;;;;;;;10359153;28;20054;-65
2021/05/25 01:54:05;;;;;;;5.50;2.20;;;;;;;;;;10359364;28;20146;-65
2021/05/25 01:59:03;;;;;;;3.20;1.77;;;;;;;;;;10359262;28;20091;-65
2021/05/25 02:04:02;;;;;;;4.57;1.90;;;;;;;;;;10359033;28;20082;-65
2021/05/25 02:09:00;;;;;;;2.92;1.67;;;;;;;;;;10359041;28;20032;-65
2021/05/25 02:13:58;;;;;;;6.18;2.00;;;;;;;;;;10358363;28;20044;-65
2021/05/25 02:18:55;;;;;;;4.88;1.73;;;;;;;;;;10358394;28;20512;-65
2021/05/25 02:23:54;;;;;;;4.60;1.98;;;;;;;;;;10358689;28;20044;-66
2021/05/25 02:28:52;;;;;;;1.73;1.63;;;;;;;;;;10358416;28;20044;-65
2021/05/25 02:33:50;;;;;;;4.50;2.45;;;;;;;;;;10357672;28;20082;-65
2021/05/25 02:38:48;;;;;;;4.05;2.08;;;;;;;;;;10357252;28;20094;-65
2021/05/25 02:43:49;;;;;;;5.65;2.55;;;;;;;;;;10319244;28;1123413;-65
2021/05/25 02:48:47;;;;;;;4.40;2.08;;;;;;;;;;10359442;28;20044;-64
2021/05/25 02:53:45;;;;;;;3.92;2.58;;;;;;;;;;10357385;28;20519;-64
2021/05/25 02:58:42;;;;;;;2.85;2.15;;;;;;;;;;10358831;28;20075;-64
2021/05/25 03:03:41;;;;;;;4.45;2.70;;;;;;;;;;10357309;28;20044;-64
2021/05/25 03:08:39;;;;;;;2.17;1.90;;;;;;;;;;10356440;28;20048;-64
2021/05/25 03:13:37;;;;;;;3.33;1.92;;;;;;;;;;10356461;28;20075;-63
2021/05/25 03:18:35;;;;;;;4.13;1.98;;;;;;;;;;10350761;28;20055;-64
2021/05/25 03:23:33;;;;;;;3.88;1.95;;;;;;;;;;10355510;28;20509;-63
2021/05/25 03:28:31;;;;;;;4.88;1.90;;;;;;;;;;10349004;28;20098;-63
2021/05/25 03:33:29;;;;;;;7.93;2.30;;;;;;;;;;10357517;28;20051;-64
2021/05/25 03:38:27;;;;;;;4.93;2.03;;;;;;;;;;10357523;28;20094;-64
2021/05/25 03:43:26;;;;;;;7.38;2.33;;;;;;;;;;10352013;28;20064;-64
2021/05/25 03:48:23;;;;;;;4.75;2.00;;;;;;;;;;10352855;28;20075;-64
2021/05/25 03:53:21;;;;;;;5.82;2.30;;;;;;;;;;10354451;28;20517;-65
2021/05/25 04:03:36;;;;;;;7.07;3.78;;;;;;;;;;10355273;28;20068;-64
2021/05/25 04:08:34;;;;;;;4.90;2.80;;;;;;;;;;10353954;28;20429;-65
2021/05/25 04:13:31;;;;;;;7.30;2.40;;;;;;;;;;10353985;28;20079;-65
2021/05/25 04:18:29;;;;;;;7.60;3.13;;;;;;;;;;10354870;28;20533;-65
2021/05/25 04:23:28;;;;;;;4.88;1.92;;;;;;;;;;10336716;28;20040;-65
2021/05/25 04:28:26;;;;;;;6.03;2.45;;;;;;;;;;10355100;28;20083;-65
2021/05/25 04:33:24;;;;;;;3.03;2.17;;;;;;;;;;10354004;28;20420;-65
2021/05/25 04:38:22;;;;;;;11.32;4.90;;;;;;;;;;10354322;28;20075;-64
2021/05/25 04:43:20;;;;;;;4.75;2.33;;;;;;;;;;10353754;28;20485;-65
2021/05/25 04:48:18;;;;;;;7.65;2.67;;;;;;;;;;10353408;28;20048;-65
2021/05/25 04:53:16;;;;;;;3.83;2.50;;;;;;;;;;10353291;28;20060;-65
2021/05/25 04:58:15;;;;;;;8.70;3.78;;;;;;;;;;10350712;28;20110;-65
2021/05/25 05:03:14;;;;;;;7.95;2.72;;;;;;;;;;10356945;28;20086;-65
2021/05/25 05:08:11;;;;;;;2.83;2.38;;;;;;;;;;10358479;28;20075;-65
2021/05/25 05:13:09;;;;;;;2.63;2.30;;;;;;;;;;10360079;28;20078;-65
2021/05/25 05:18:07;;;;;;;5.20;1.98;;;;;;;;;;10360848;28;20109;-65
2021/05/25 05:23:09;;;;;;;6.40;2.40;;;;;;;;;;10360218;28;20044;-65
2021/05/25 05:28:07;;;;;;;6.95;2.72;;;;;;;;;;10359363;28;20036;-65
2021/05/25 05:33:06;;;;;;;9.13;4.57;;;;;;;;;;10360090;28;20048;-65
2021/05/25 05:38:05;;;;;;;8.23;3.25;;;;;;;;;;10360481;28;20563;-65
2021/05/25 05:43:06;;;;;;;5.05;2.50;;;;;;;;;;10359670;28;20075;-66
2021/05/25 05:48:04;;;;;;;6.40;3.67;;;;;;;;;;10358808;28;20082;-66
2021/05/25 05:53:02;;;;;;;4.00;2.13;;;;;;;;;;10359422;28;20036;-65
2021/05/25 05:58:00;;;;;;;5.25;2.20;;;;;;;;;;10359130;28;20505;-65
2021/05/25 06:03:00;;;;;;;5.43;3.10;;;;;;;;;;10358858;28;20079;-65
2021/05/25 06:07:57;;;;;;;11.48;7.78;;;;;;;;;;10358726;28;20036;-63
2021/05/25 06:12:55;;;;;;;9.63;5.22;;;;;;;;;;10357520;28;20051;-63
2021/05/25 06:17:53;;;;;;;15.20;7.55;;;;;;;;;;10357811;28;20516;-63
2021/05/25 06:22:52;;;;;;;5.50;3.13;;;;;;;;;;10358486;28;20685;-63
2021/05/25 06:27:50;;;;;;;8.60;4.63;;;;;;;;;;10358347;28;20466;-63
2021/05/25 06:32:48;;;;;;;5.95;2.80;;;;;;;;;;10358075;28;20051;-63
2021/05/25 06:37:46;;;;;;;5.10;1.98;;;;;;;;;;10357962;28;20106;-63
2021/05/25 06:42:45;;;;;;;7.00;2.80;;;;;;;;;;10357169;28;20080;-63
2021/05/25 06:47:43;;;;;;;4.05;2.70;;;;;;;;;;10356440;28;20098;-63
2021/05/25 06:52:41;;;;;;;3.33;1.77;;;;;;;;;;10358435;28;20067;-64
2021/05/25 06:57:39;;;;;;;6.07;2.42;;;;;;;;;;10358326;28;20067;-63
2021/05/25 07:02:38;;;;;;;5.28;2.08;;;;;;;;;;10357228;28;20087;-64
2021/05/25 07:07:36;;;;;;;4.13;2.00;;;;;;;;;;10357718;28;20078;-64
2021/05/25 07:12:34;;;;;;;7.40;2.20;;;;;;;;;;10357712;28;20040;-63
2021/05/25 07:17:33;;;;;;;4.68;2.20;;;;;;;;;;10356302;28;20559;-63
2021/05/25 07:22:34;;;;;;;4.30;1.98;;;;;;;;;;10356556;28;20043;-63
2021/05/25 07:27:33;;;;;;;5.85;1.70;;;;;;;;;;10357258;28;20067;-64
2021/05/25 07:32:32;;;;;;;4.43;2.00;;;;;;;;;;10354963;28;20079;-64
2021/05/25 07:37:30;;;;;;;3.80;1.45;;;;;;;;;;10356172;28;20076;-64
2021/05/25 07:42:29;;;;;;;2.45;1.40;;;;;;;;;;10355900;28;20517;-64
2021/05/25 07:47:28;;;;;;;6.93;1.58;;;;;;;;;;10355611;28;20056;-63
2021/05/25 07:52:27;;;;;;;4.25;2.20;;;;;;;;;;10356621;28;20465;-63
2021/05/25 07:57:25;;;;;;;4.13;1.42;;;;;;;;;;10355531;28;20083;-64
2021/05/25 08:02:24;;;;;;;3.17;1.40;;;;;;;;;;10355381;28;20102;-64
2021/05/25 08:07:21;;;;;;;2.28;1.40;;;;;;;;;;10355277;28;20549;-64
2021/05/25 08:12:19;;;;;;;5.10;1.77;;;;;;;;;;10355575;28;20052;-64
2021/05/25 08:17:21;;;;;;;2.25;1.77;;;;;;;;;;10356091;28;20488;-64
2021/05/25 08:22:19;;;;;;;7.30;2.40;;;;;;;;;;10356478;28;20040;-64
2021/05/25 08:27:19;;;;;;;6.97;2.13;;;;;;;;;;10356029;28;20047;-64
2021/05/25 08:32:37;;;;;;;3.58;1.70;;;;;;;;;;10355304;28;20493;-64
2021/05/25 08:37:36;;;;;;;9.55;1.98;;;;;;;;;;10363072;28;20079;-64
2021/05/25 08:42:36;;;;;;;6.45;2.35;;;;;;;;;;10363048;28;20098;-63
2021/05/25 08:47:35;;;;;;;8.85;3.35;;;;;;;;;;10362646;28;20086;-63
2021/05/25 08:52:33;;;;;;;3.10;2.45;;;;;;;;;;10363110;28;20505;-64
2021/05/25 08:57:32;;;;;;;5.80;2.08;;;;;;;;;;10362771;28;20501;-64
2021/05/25 09:02:30;;;;;;;3.28;1.75;;;;;;;;;;10362818;28;20479;-64
2021/05/25 09:07:39;;;;;;;6.45;2.33;;;;;;;;;;10362667;28;20064;-63
2021/05/25 09:12:40;;;;;;;7.85;2.17;;;;;;;;;;10360892;28;20075;-64
2021/05/25 09:17:38;;;;;;;6.13;2.40;;;;;;;;;;10361327;28;20052;-63
2021/05/25 09:22:37;;;;;;;2.78;1.52;;;;;;;;;;10361534;28;20075;-64
2021/05/25 09:27:38;;;;;;;4.40;2.13;;;;;;;;;;10360702;28;20051;-63
2021/05/25 09:32:39;;;;;;;5.07;1.80;;;;;;;;;;10359683;28;20102;-64
2021/05/25 09:37:44;;;;;;;3.85;1.50;;;;;;;;;;10361580;28;20126;-64
2021/05/25 09:42:42;;;;;;;7.38;2.13;;;;;;;;;;10359603;28;20056;-64
2021/05/25 09:47:42;;;;;;;5.93;2.38;;;;;;;;;;10359897;28;20044;-63
2021/05/25 09:52:58;;;;;;;3.47;2.42;;;;;;;;;;10359810;28;20051;-62
2021/05/25 09:57:56;;;;;;;3.67;2.25;;;;;;;;;;10360212;28;20259;-63
2021/05/25 10:03:06;;;;;;;6.47;2.25;;;;;;;;;;10359580;28;20047;-63
2021/05/25 10:08:04;;;;;;;5.70;2.20;;;;;;;;;;10358163;28;20517;-63
2021/05/25 10:13:02;;;;;;;3.83;2.30;;;;;;;;;;10358936;28;20055;-64
2021/05/25 10:18:17;;;;;;;6.03;2.42;;;;;;;;;;10359138;28;20445;-63
2021/05/25 10:23:24;;;;;;;4.30;2.65;;;;;;;;;;10357901;28;20072;-62
2021/05/25 10:28:22;;;;;;;4.47;1.95;;;;;;;;;;10358288;28;20048;-63
2021/05/25 10:33:21;;;;;;;5.32;2.05;;;;;;;;;;10339363;28;20044;-63
2021/05/25 10:38:21;;;;;;;3.63;1.50;;;;;;;;;;10357648;28;20080;-63
2021/05/25 10:43:43;;;;;;;8.20;2.08;;;;;;;;;;10357203;28;20086;-63
2021/05/25 10:48:49;;;;;;;7.88;1.95;;;;;;;;;;10356934;28;20055;-63
2021/05/25 10:54:16;;;;;;;2.92;2.10;;;;;;;;;;10357042;28;20055;-64
2021/05/25 10:59:16;;;;;;;3.38;1.88;;;;;;;;;;10356274;28;20080;-63
2021/05/25 11:04:14;;;;;;;6.55;3.58;;;;;;;;;;10357112;28;20496;-64
2021/05/25 11:09:26;;;;;;;3.92;1.77;;;;;;;;;;10356333;28;20074;-64
2021/05/25 11:14:25;;;;;;;6.28;2.17;;;;;;;;;;10356425;28;20087;-63
2021/05/25 11:19:33;;;;;;;3.50;1.73;;;;;;;;;;10355769;28;20083;-63
2021/05/25 11:24:32;;;;;;;2.08;1.77;;;;;;;;;;10356115;28;20072;-63
2021/05/25 11:29:31;;;;;;;3.53;1.58;;;;;;;;;;10356767;28;20040;-63
2021/05/25 11:34:29;;;;;;;3.80;1.45;;;;;;;;;;10355492;28;20071;-63
2021/05/25 11:39:28;;;;;;;1.83;1.55;;;;;;;;;;10355845;28;20079;-63
2021/05/25 11:44:33;;;;;;;4.10;1.45;;;;;;;;;;10356853;28;20072;-64
2021/05/25 11:49:32;;;;;;;4.72;1.50;;;;;;;;;;10355768;28;20044;-64
2021/05/25 11:54:31;;;;;;;7.78;2.15;;;;;;;;;;10355161;28;20040;-63
2021/05/25 11:59:29;;;;;;;3.08;1.40;;;;;;;;;;10355664;28;20068;-64
2021/05/25 12:04:30;;;;;;;3.92;1.90;;;;;;;;;;10337472;28;20048;-63
2021/05/25 12:09:28;;;;;;;5.55;1.77;;;;;;;;;;10357864;28;20047;-63
2021/05/25 12:14:30;;;;;;;2.95;2.03;;;;;;;;;;10363339;28;20094;-62
2021/05/25 12:19:29;;;;;;;4.35;1.13;;;;;;;;;;10345350;28;20051;-63
2021/05/25 12:24:27;;;;;;;2.50;1.55;;;;;;;;;;10363583;28;20071;-63
2021/05/25 12:29:26;;;;;;;4.97;1.80;;;;;;;;;;10362957;28;20068;-63
2021/05/25 12:34:24;;;;;;;3.00;1.95;;;;;;;;;;10362396;28;20080;-63
2021/05/25 12:39:33;;;;;;;3.63;2.05;;;;;;;;;;10362467;28;20075;-63
2021/05/25 12:44:32;;;;;;;5.47;2.63;;;;;;;;;;10363027;28;20439;-63
2021/05/25 12:49:31;;;;;;;2.25;1.55;;;;;;;;;;10361585;28;20048;-63
2021/05/25 12:54:28;;;;;;;2.17;1.30;;;;;;;;;;10362582;28;20036;-63
2021/05/25 12:59:27;;;;;;;4.07;1.85;;;;;;;;;;10361814;28;20482;-63
2021/05/25 13:04:25;;;;;;;3.33;1.85;;;;;;;;;;10360615;28;20040;-63
2021/05/25 13:09:34;;;;;;;3.03;1.92;;;;;;;;;;10361455;28;20052;-63
2021/05/25 13:14:34;;;;;;;6.22;2.85;;;;;;;;;;10361483;28;20102;-63
2021/05/25 13:19:36;;;;;;;5.75;1.58;;;;;;;;;;10359659;28;20072;-63
2021/05/25 13:24:34;;;;;;;2.42;1.60;;;;;;;;;;10359590;28;20059;-63
2021/05/25 13:29:33;;;;;;;4.85;2.28;;;;;;;;;;10360403;28;20084;-64
2021/05/25 13:34:31;;;;;;;2.03;1.42;;;;;;;;;;10360533;28;20496;-64
2021/05/25 13:39:29;;;;;;;4.32;1.63;;;;;;;;;;10360127;28;20465;-63
2021/05/25 13:44:27;;;;;;;5.15;1.55;;;;;;;;;;10361443;28;20059;-63
2021/05/25 13:49:26;;;;;;;3.88;1.33;;;;;;;;;;10360415;28;20040;-63
2021/05/25 13:54:24;;;;;;;5.90;1.75;;;;;;;;;;10359959;28;20337;-63
2021/05/25 13:59:30;;;;;;;9.52;1.77;;;;;;;;;;10359847;28;20115;-63
2021/05/25 14:04:29;;;;;;;3.80;1.63;;;;;;;;;;10359147;28;20055;-64
2021/05/25 14:09:27;;;;;;;5.72;1.83;;;;;;;;;;10359601;28;20055;-64
2021/05/25 14:14:25;;;;;;;5.28;1.90;;;;;;;;;;10359378;28;20051;-64
2021/05/25 14:19:24;;;;;;;3.03;1.42;;;;;;;;;;10358577;28;20069;-64
2021/05/25 14:24:23;;;;;;;4.65;1.80;;;;;;;;;;10354795;28;20070;-63
2021/05/25 14:29:21;;;;;;;4.78;1.80;;;;;;;;;;10354832;28;20071;-64
2021/05/25 14:34:19;;;;;;;9.13;3.00;;;;;;;;;;10355555;28;20060;-64
2021/05/25 14:39:17;;;;;;;10.55;2.03;;;;;;;;;;10343553;28;20074;-64
2021/05/25 14:44:16;;;;;;;3.65;1.95;;;;;;;;;;10351707;28;20079;-64
2021/05/25 14:49:15;;;;;;;5.20;2.55;;;;;;;;;;10355994;28;20316;-63
2021/05/25 14:54:13;;;;;;;4.72;1.83;;;;;;;;;;10350145;28;20086;-63
2021/05/25 14:59:12;;;;;;;5.57;2.13;;;;;;;;;;10357916;28;20501;-65
2021/05/25 15:04:14;;;;;;;4.05;1.90;;;;;;;;;;10357356;28;20067;-62
2021/05/25 15:09:17;;;;;;;5.30;2.30;;;;;;;;;;10349979;28;20102;-64
2021/05/25 15:14:15;;;;;;;8.87;2.13;;;;;;;;;;10348423;28;20056;-61
2021/05/25 15:19:13;;;;;;;4.57;2.20;;;;;;;;;;10340238;28;20353;-63
2021/05/25 15:24:12;;;;;;;7.25;3.55;;;;;;;;;;10342973;28;20504;-63
2021/05/25 15:29:09;;;;;;;6.90;3.03;;;;;;;;;;10355645;28;20044;-64
2021/05/25 15:34:07;;;;;;;11.38;4.10;;;;;;;;;;10355479;28;20090;-64
2021/05/25 15:39:06;;;;;;;7.88;2.03;;;;;;;;;;10337458;28;20084;-62
2021/05/25 15:44:04;;;;;;;8.07;2.92;;;;;;;;;;10318951;28;20075;-62
2021/05/25 15:49:02;;;;;;;10.68;3.40;;;;;;;;;;10339243;28;20488;-62
2021/05/25 15:54:00;;;;;;;12.10;2.83;;;;;;;;;;10345851;28;20080;-64
2021/05/25 15:58:59;;;;;;;4.15;1.88;;;;;;;;;;10354182;28;20086;-66
2021/05/25 16:03:57;;;;;;;10.98;2.70;;;;;;;;;;10353404;28;20047;-65
2021/05/25 16:08:55;;;;;;;10.70;4.43;;;;;;;;;;10351562;28;20075;-64
2021/05/25 16:14:01;;;;;;;3.67;2.15;;;;;;;;;;10350335;28;20075;-64
2021/05/25 16:18:59;;;;;;;5.95;2.63;;;;;;;;;;10320517;28;20126;-63
2021/05/25 16:23:57;;;;;;;7.20;2.13;;;;;;;;;;10340548;28;20063;-63
2021/05/25 16:28:55;;;;;;;6.75;2.53;;;;;;;;;;10347661;28;20071;-64
2021/05/25 16:33:53;;;;;;;11.15;3.22;;;;;;;;;;10352200;28;20079;-64
2021/05/25 16:38:51;;;;;;;15.88;4.03;;;;;;;;;;10351852;28;20075;-63
2021/05/25 16:43:49;;;;;;;4.40;3.15;;;;;;;;;;10352683;28;20099;-64
2021/05/25 16:48:47;;;;;;;6.20;2.15;;;;;;;;;;10354061;28;20048;-65
2021/05/25 16:53:46;;;;;;;7.75;2.90;;;;;;;;;;10353329;28;20040;-65
2021/05/25 16:58:45;;;;;;;5.28;3.05;;;;;;;;;;10360901;28;20086;-65
2021/05/25 17:03:54;;;;;;;9.90;3.50;;;;;;;;;;10358560;28;20115;-65
2021/05/25 17:19:28;;;;;;;7.15;3.25;;;;;;;;;;10333002;28;20771;-63
2021/05/25 17:24:36;;;;;;;8.70;3.97;;;;;;;;;;10295815;28;20073;-65
2021/05/25 17:29:34;;;;;;;12.93;4.47;;;;;;;;;;10290208;28;20081;-63
2021/05/25 17:34:37;;;;;;;4.68;2.75;;;;;;;;;;10284288;28;20049;-64
2021/05/25 17:39:35;;;;;;;6.55;2.80;;;;;;;;;;10303737;28;20045;-65
2021/05/25 17:44:33;;;;;;;9.13;3.08;;;;;;;;;;10308935;28;20067;-65
2021/05/25 17:49:31;;;;;;;8.32;3.50;;;;;;;;;;10300087;28;20497;-64
2021/05/25 17:54:30;;;;;;;9.38;3.47;;;;;;;;;;10282012;28;20065;-65
2021/05/25 17:59:28;;;;;;;6.32;3.67;;;;;;;;;;10273393;28;20076;-65
2021/05/25 18:04:26;;;;;;;3.30;2.55;;;;;;;;;;10304034;28;20044;-64
2021/05/25 18:09:24;;;;;;;5.82;2.80;;;;;;;;;;10289058;28;20068;-65
2021/05/25 18:14:22;;;;;;;8.18;3.42;;;;;;;;;;10295406;28;20068;-64
2021/05/25 18:19:21;;;;;;;10.57;3.53;;;;;;;;;;10295342;28;20497;-65
2021/05/25 18:24:18;;;;;;;9.57;3.60;;;;;;;;;;10308951;28;20041;-65
2021/05/25 18:29:16;;;;;;;5.57;3.20;;;;;;;;;;10288859;28;20076;-64
2021/05/25 18:34:49;;;;;;;5.68;3.30;;;;;;;;;;10273406;28;20053;-64
2021/05/25 18:40:08;;;;;;;4.28;3.17;;;;;;;;;;10258386;28;20529;-64
2021/05/25 18:45:06;;;;;;;6.30;3.53;;;;;;;;;;10280092;28;20446;-64
2021/05/25 18:50:08;;;;;;;5.30;3.20;;;;;;;;;;10275012;28;20096;-64
2021/05/25 18:55:07;;;;;;;7.95;3.85;;;;;;;;;;10273880;28;20501;-64
2021/05/25 19:00:05;;;;;;;7.07;3.17;;;;;;;;;;10261998;28;20084;-62
2021/05/25 19:05:05;;;;;;;5.15;3.33;;;;;;;;;;10279249;28;20077;-62
2021/05/25 19:10:04;;;;;;;8.32;3.60;;;;;;;;;;10279440;28;20084;-63
2021/05/25 19:15:05;;;;;;;6.97;3.40;;;;;;;;;;10271691;28;20103;-62
2021/05/25 19:20:09;;;;;;;8.18;3.00;;;;;;;;;;10259678;28;20801;-62
2021/05/25 19:25:09;;;;;;;;;;;;;;;;;;10269240;28;20065;-63
2021/05/25 19:30:07;;;;;;;7.07;3.40;;;;;;;;;;10269342;28;19944;-61
2021/05/25 19:35:06;;;;;;;5.47;3.17;;;;;;;;;;10261309;28;20485;-62
2021/05/25 19:40:05;;;;;;;4.68;3.10;;;;;;;;;;10263484;28;20077;-61
2021/05/25 19:45:03;;;;;;;6.13;2.78;;;;;;;;;;10273786;28;20084;-61
2021/05/25 19:50:02;;;;;;;4.85;2.85;;;;;;;;;;10276117;28;20288;-62
2021/05/25 19:55:01;;;;;;;5.82;2.92;;;;;;;;;;10273118;28;20107;-61
2021/05/25 19:59:59;;;;;;;8.20;3.20;;;;;;;;;;10275532;28;20068;-62
2021/05/25 20:04:57;;;;;;;6.57;2.95;;;;;;;;;;10277370;28;20064;-62
2021/05/25 20:09:55;;;;;;;5.28;2.53;;;;;;;;;;10277035;28;20505;-63
2021/05/25 20:14:54;;;;;;;4.05;2.13;;;;;;;;;;10276121;28;20477;-63
2021/05/25 20:19:52;;;;;;;4.03;2.38;;;;;;;;;;10276571;28;20076;-63
2021/05/25 20:24:50;;;;;;;4.82;2.40;;;;;;;;;;10276271;28;20048;-63
2021/05/25 20:29:50;;;;;;;3.30;1.95;;;;;;;;;;10276127;28;20084;-63
2021/05/25 20:40:06;;;;;;;3.42;1.52;;;;;;;;;;10275820;28;20080;-63
2021/05/25 20:45:05;;;;;;;4.43;1.50;;;;;;;;;;10275466;28;20087;-62
2021/05/25 20:50:04;;;;;;;2.92;2.03;;;;;;;;;;10275195;28;20080;-63
2021/05/25 20:55:03;;;;;;;1.90;1.58;;;;;;;;;;10275482;28;20076;-62
2021/05/25 21:00:01;;;;;;;2.67;1.73;;;;;;;;;;10275727;28;20087;-62
2021/05/25 21:04:59;;;;;;;3.60;2.00;;;;;;;;;;10274954;28;20049;-63
2021/05/25 21:09:57;;;;;;;3.17;1.85;;;;;;;;;;10275384;28;20399;-62
2021/05/25 21:14:55;;;;;;;5.20;2.00;;;;;;;;;;10275026;28;20049;-62
2021/05/25 21:19:53;;;;;;;7.15;2.00;;;;;;;;;;10275034;28;20080;-63
2021/05/25 21:24:52;;;;;;;3.95;1.60;;;;;;;;;;10275292;28;20482;-63
2021/05/25 21:29:51;;;;;;;2.75;1.80;;;;;;;;;;10275458;28;20053;-63
2021/05/25 21:34:49;;;;;;;4.75;2.25;;;;;;;;;;10274791;28;20071;-64
2021/05/25 21:39:46;;;;;;;4.53;2.10;;;;;;;;;;10274758;28;20469;-63
2021/05/25 21:44:44;;;;;;;5.03;1.70;;;;;;;;;;10274707;28;20045;-62
2021/05/25 21:49:45;;;;;;;4.50;2.00;;;;;;;;;;10274629;28;20056;-63
2021/05/25 21:54:43;;;;;;;3.65;2.00;;;;;;;;;;10274533;28;20052;-62
2021/05/25 21:59:41;;;;;;;4.07;2.15;;;;;;;;;;10274381;28;20105;-63
2021/05/25 22:04:41;;;;;;;4.63;1.92;;;;;;;;;;10279382;28;20045;-62
2021/05/25 22:09:39;;;;;;;4.38;1.92;;;;;;;;;;10281074;28;20041;-62
2021/05/25 22:14:37;;;;;;;7.35;2.20;;;;;;;;;;10280768;28;20060;-63
2021/05/25 22:19:35;;;;;;;6.90;2.05;;;;;;;;;;10281899;28;20088;-63
2021/05/25 22:24:33;;;;;;;4.13;1.58;;;;;;;;;;10281351;28;20534;-63
2021/05/25 22:29:31;;;;;;;5.65;1.80;;;;;;;;;;10281621;28;20056;-63
2021/05/25 22:34:29;;;;;;;3.55;1.88;;;;;;;;;;10280918;28;20045;-63
2021/05/25 22:39:28;;;;;;;5.47;1.33;;;;;;;;;;10281248;28;20191;-63
2021/05/25 22:44:26;;;;;;;11.73;2.60;;;;;;;;;;10280775;28;20044;-62
2021/05/25 22:49:25;;;;;;;5.95;2.08;;;;;;;;;;10280819;28;20056;-64
2021/05/25 22:54:22;;;;;;;3.95;2.38;;;;;;;;;;10280013;28;20076;-63
2021/05/25 22:59:20;;;;;;;7.03;2.17;;;;;;;;;;10279424;28;20084;-63
2021/05/25 23:04:19;;;;;;;2.50;1.90;;;;;;;;;;10280740;28;20052;-63
2021/05/25 23:09:17;;;;;;;5.28;1.90;;;;;;;;;;10280474;28;20084;-63
2021/05/25 23:14:15;;;;;;;5.07;2.28;;;;;;;;;;10280353;28;20049;-62
2021/05/25 23:19:13;;;;;;;2.28;1.73;;;;;;;;;;10279106;28;20222;-63
2021/05/25 23:24:11;;;;;;;2.60;1.55;;;;;;;;;;10280165;28;20041;-63
2021/05/25 23:29:10;;;;;;;5.07;1.65;;;;;;;;;;10280127;28;20049;-62
2021/05/25 23:34:08;;;;;;;3.50;1.90;;;;;;;;;;10279874;28;20040;-63
2021/05/25 23:39:06;;;;;;;3.53;2.03;;;;;;;;;;10279415;28;20087;-63
2021/05/25 23:44:04;;;;;;;6.18;1.80;;;;;;;;;;10279414;28;20072;-62
2021/05/25 23:49:03;;;;;;;5.13;1.60;;;;;;;;;;10279125;28;20542;-62
2021/05/25 23:54:01;;;;;;;2.65;1.63;;;;;;;;;;10278926;28;20293;-62
2021/05/25 23:58:59;;;;;;;2.25;1.70;;;;;;;;;;10278894;28;20076;-62
